Terminal Aerodrome Forecast
Issued by NWS Cleveland, OH

Home | Current Version | Previous Version | Text Only | Print | Product List | Glossary Off
Versions: 1 2 3 4 5 6 7 8 9 10 11 12 13 14

000
FTUS41 KCLE 161003 AAA
TAFMFD
TAF AMD
KMFD 161003Z 1610/1706 30005KT P6SM SCT040
     FM161500 31007KT P6SM BKN060
     FM161900 32006KT P6SM SCT070
     FM170100 18003KT P6SM SCT200=

USA.gov is the U.S. government's official web portal to all federal, state and local government web resources and services.